sensor_id;sensor_type;location;lat;lon;timestamp;P1;durP1;ratioP1;P2;durP2;ratioP2
16577;SDS011;8401;52.528;13.340;2023-03-01T00:01:12;25.67;;;14.60;;
16577;SDS011;8401;52.528;13.340;2023-03-01T00:03:40;26.70;;;14.67;;
16577;SDS011;8401;52.528;13.340;2023-03-01T00:06:07;20.37;;;12.77;;
16577;SDS011;8401;52.528;13.340;2023-03-01T00:08:33;24.07;;;14.63;;
16577;SDS011;8401;52.528;13.340;2023-03-01T00:11:04;24.50;;;14.37;;
16577;SDS011;8401;52.528;13.340;2023-03-01T00:13:46;23.67;;;13.97;;
16577;SDS011;8401;52.528;13.340;2023-03-01T00:16:16;23.43;;;14.13;;
16577;SDS011;8401;52.528;13.340;2023-03-01T00:18:44;20.67;;;13.90;;
16577;SDS011;8401;52.528;13.340;2023-03-01T00:21:11;26.60;;;14.17;;
16577;SDS011;8401;52.528;13.340;2023-03-01T00:23:37;24.97;;;15.40;;
16577;SDS011;8401;52.528;13.340;2023-03-01T00:26:07;25.33;;;14.43;;
16577;SDS011;8401;52.528;13.340;2023-03-01T00:28:34;23.63;;;13.53;;
16577;SDS011;8401;52.528;13.340;2023-03-01T00:31:04;23.77;;;14.50;;
16577;SDS011;8401;52.528;13.340;2023-03-01T00:33:31;23.43;;;15.23;;
16577;SDS011;8401;52.528;13.340;2023-03-01T00:35:59;24.70;;;13.77;;
16577;SDS011;8401;52.528;13.340;2023-03-01T00:38:26;30.57;;;15.73;;
16577;SDS011;8401;52.528;13.340;2023-03-01T00:40:51;26.60;;;15.80;;
16577;SDS011;8401;52.528;13.340;2023-03-01T00:43:17;30.00;;;15.87;;
16577;SDS011;8401;52.528;13.340;2023-03-01T00:45:43;25.63;;;14.83;;
16577;SDS011;8401;52.528;13.340;2023-03-01T00:48:09;31.60;;;16.17;;
16577;SDS011;8401;52.528;13.340;2023-03-01T00:50:34;30.03;;;15.53;;
16577;SDS011;8401;52.528;13.340;2023-03-01T00:53:00;26.50;;;15.80;;
16577;SDS011;8401;52.528;13.340;2023-03-01T00:55:26;29.63;;;16.10;;
16577;SDS011;8401;52.528;13.340;2023-03-01T00:57:51;28.63;;;17.33;;
16577;SDS011;8401;52.528;13.340;2023-03-01T01:00:18;25.90;;;16.47;;
16577;SDS011;8401;52.528;13.340;2023-03-01T01:02:44;30.00;;;15.50;;
16577;SDS011;8401;52.528;13.340;2023-03-01T01:05:10;25.67;;;16.33;;
16577;SDS011;8401;52.528;13.340;2023-03-01T01:07:36;24.93;;;16.40;;
16577;SDS011;8401;52.528;13.340;2023-03-01T01:10:02;30.10;;;16.93;;
16577;SDS011;8401;52.528;13.340;2023-03-01T01:12:28;25.37;;;14.90;;
16577;SDS011;8401;52.528;13.340;2023-03-01T01:14:54;27.53;;;15.40;;
16577;SDS011;8401;52.528;13.340;2023-03-01T01:17:20;27.73;;;15.77;;
16577;SDS011;8401;52.528;13.340;2023-03-01T01:19:45;26.43;;;14.77;;
16577;SDS011;8401;52.528;13.340;2023-03-01T01:22:11;25.63;;;14.93;;
16577;SDS011;8401;52.528;13.340;2023-03-01T01:24:37;24.80;;;16.03;;
16577;SDS011;8401;52.528;13.340;2023-03-01T01:27:02;27.70;;;15.73;;
16577;SDS011;8401;52.528;13.340;2023-03-01T01:29:28;27.33;;;15.17;;
16577;SDS011;8401;52.528;13.340;2023-03-01T01:31:53;27.50;;;16.23;;
16577;SDS011;8401;52.528;13.340;2023-03-01T01:34:20;24.83;;;15.83;;
16577;SDS011;8401;52.528;13.340;2023-03-01T01:36:50;26.23;;;15.47;;
16577;SDS011;8401;52.528;13.340;2023-03-01T01:39:20;25.93;;;16.40;;
16577;SDS011;8401;52.528;13.340;2023-03-01T01:41:46;25.53;;;14.97;;
16577;SDS011;8401;52.528;13.340;2023-03-01T01:49:31;26.70;;;15.97;;
16577;SDS011;8401;52.528;13.340;2023-03-01T01:52:07;27.47;;;16.57;;
16577;SDS011;8401;52.528;13.340;2023-03-01T01:57:21;24.67;;;15.30;;
16577;SDS011;8401;52.528;13.340;2023-03-01T01:59:51;22.40;;;15.53;;
16577;SDS011;8401;52.528;13.340;2023-03-01T02:02:21;26.93;;;15.67;;
16577;SDS011;8401;52.528;13.340;2023-03-01T02:04:48;24.40;;;15.47;;
16577;SDS011;8401;52.528;13.340;2023-03-01T02:07:16;26.07;;;15.30;;
16577;SDS011;8401;52.528;13.340;2023-03-01T02:09:45;24.37;;;15.43;;
16577;SDS011;8401;52.528;13.340;2023-03-01T02:12:13;28.13;;;16.27;;
16577;SDS011;8401;52.528;13.340;2023-03-01T02:14:40;26.97;;;15.83;;
16577;SDS011;8401;52.528;13.340;2023-03-01T02:17:05;22.20;;;14.70;;
16577;SDS011;8401;52.528;13.340;2023-03-01T02:19:39;23.43;;;15.23;;
16577;SDS011;8401;52.528;13.340;2023-03-01T02:22:22;25.47;;;14.87;;
16577;SDS011;8401;52.528;13.340;2023-03-01T02:27:33;23.90;;;15.17;;
16577;SDS011;8401;52.528;13.340;2023-03-01T02:30:06;25.73;;;14.93;;
16577;SDS011;8401;52.528;13.340;2023-03-01T02:32:32;22.50;;;14.80;;
16577;SDS011;8401;52.528;13.340;2023-03-01T02:34:59;24.23;;;15.10;;
16577;SDS011;8401;52.528;13.340;2023-03-01T02:37:25;22.83;;;14.93;;
16577;SDS011;8401;52.528;13.340;2023-03-01T02:39:54;23.80;;;15.10;;
16577;SDS011;8401;52.528;13.340;2023-03-01T02:42:31;22.50;;;14.80;;
16577;SDS011;8401;52.528;13.340;2023-03-01T02:45:01;24.97;;;15.10;;
16577;SDS011;8401;52.528;13.340;2023-03-01T02:47:28;22.83;;;14.97;;
16577;SDS011;8401;52.528;13.340;2023-03-01T02:49:53;25.30;;;15.20;;
16577;SDS011;8401;52.528;13.340;2023-03-01T02:55:37;28.37;;;15.57;;
16577;SDS011;8401;52.528;13.340;2023-03-01T02:57:55;22.67;;;14.67;;
16577;SDS011;8401;52.528;13.340;2023-03-01T03:00:26;24.27;;;14.80;;
16577;SDS011;8401;52.528;13.340;2023-03-01T03:02:58;20.17;;;14.27;;
16577;SDS011;8401;52.528;13.340;2023-03-01T03:05:25;27.30;;;15.13;;
16577;SDS011;8401;52.528;13.340;2023-03-01T03:07:53;24.60;;;14.63;;
16577;SDS011;8401;52.528;13.340;2023-03-01T03:12:51;27.33;;;14.77;;
16577;SDS011;8401;52.528;13.340;2023-03-01T03:15:21;22.67;;;14.10;;
16577;SDS011;8401;52.528;13.340;2023-03-01T03:17:48;22.53;;;14.50;;
16577;SDS011;8401;52.528;13.340;2023-03-01T03:20:16;21.73;;;14.63;;
16577;SDS011;8401;52.528;13.340;2023-03-01T03:22:47;24.93;;;14.97;;
16577;SDS011;8401;52.528;13.340;2023-03-01T03:25:14;23.90;;;14.87;;
16577;SDS011;8401;52.528;13.340;2023-03-01T03:27:41;22.60;;;14.43;;
16577;SDS011;8401;52.528;13.340;2023-03-01T03:30:09;21.47;;;14.97;;
16577;SDS011;8401;52.528;13.340;2023-03-01T03:32:40;28.93;;;15.17;;
16577;SDS011;8401;52.528;13.340;2023-03-01T03:35:07;25.10;;;14.50;;
16577;SDS011;8401;52.528;13.340;2023-03-01T03:37:40;21.87;;;13.80;;
16577;SDS011;8401;52.528;13.340;2023-03-01T03:40:26;21.30;;;14.57;;
16577;SDS011;8401;52.528;13.340;2023-03-01T03:42:53;26.63;;;14.97;;
16577;SDS011;8401;52.528;13.340;2023-03-01T03:45:19;22.33;;;14.60;;
16577;SDS011;8401;52.528;13.340;2023-03-01T03:47:45;24.97;;;14.70;;
16577;SDS011;8401;52.528;13.340;2023-03-01T03:50:12;20.60;;;13.97;;
16577;SDS011;8401;52.528;13.340;2023-03-01T03:52:40;20.80;;;13.83;;
16577;SDS011;8401;52.528;13.340;2023-03-01T03:55:06;20.67;;;14.37;;
16577;SDS011;8401;52.528;13.340;2023-03-01T03:57:39;22.83;;;14.63;;
16577;SDS011;8401;52.528;13.340;2023-03-01T04:00:07;26.53;;;15.07;;
16577;SDS011;8401;52.528;13.340;2023-03-01T04:02:42;22.43;;;14.90;;
16577;SDS011;8401;52.528;13.340;2023-03-01T04:05:08;21.23;;;13.97;;
16577;SDS011;8401;52.528;13.340;2023-03-01T04:07:36;24.77;;;15.10;;
16577;SDS011;8401;52.528;13.340;2023-03-01T04:10:03;24.70;;;15.40;;
16577;SDS011;8401;52.528;13.340;2023-03-01T04:12:29;23.37;;;14.57;;
16577;SDS011;8401;52.528;13.340;2023-03-01T04:14:55;24.30;;;15.33;;
16577;SDS011;8401;52.528;13.340;2023-03-01T04:17:21;25.37;;;14.70;;
16577;SDS011;8401;52.528;13.340;2023-03-01T04:19:47;23.93;;;14.93;;
16577;SDS011;8401;52.528;13.340;2023-03-01T04:22:14;25.00;;;15.17;;
16577;SDS011;8401;52.528;13.340;2023-03-01T04:24:43;25.30;;;14.77;;
16577;SDS011;8401;52.528;13.340;2023-03-01T04:27:09;23.50;;;15.03;;
16577;SDS011;8401;52.528;13.340;2023-03-01T04:29:36;20.73;;;13.17;;
16577;SDS011;8401;52.528;13.340;2023-03-01T04:32:01;24.03;;;13.40;;
16577;SDS011;8401;52.528;13.340;2023-03-01T04:34:28;20.80;;;13.87;;
16577;SDS011;8401;52.528;13.340;2023-03-01T04:36:54;23.23;;;13.03;;
16577;SDS011;8401;52.528;13.340;2023-03-01T04:39:20;21.33;;;13.80;;
16577;SDS011;8401;52.528;13.340;2023-03-01T04:41:46;22.20;;;14.10;;
16577;SDS011;8401;52.528;13.340;2023-03-01T04:44:12;20.90;;;13.43;;
16577;SDS011;8401;52.528;13.340;2023-03-01T04:46:38;24.33;;;14.20;;
16577;SDS011;8401;52.528;13.340;2023-03-01T04:49:04;22.90;;;13.23;;
16577;SDS011;8401;52.528;13.340;2023-03-01T04:51:30;19.17;;;12.60;;
16577;SDS011;8401;52.528;13.340;2023-03-01T04:53:57;19.93;;;13.07;;
16577;SDS011;8401;52.528;13.340;2023-03-01T04:56:23;22.47;;;13.00;;
16577;SDS011;8401;52.528;13.340;2023-03-01T04:58:49;20.47;;;13.07;;
16577;SDS011;8401;52.528;13.340;2023-03-01T05:01:16;21.53;;;14.43;;
16577;SDS011;8401;52.528;13.340;2023-03-01T05:03:44;20.27;;;13.47;;
16577;SDS011;8401;52.528;13.340;2023-03-01T05:06:11;26.20;;;14.23;;
16577;SDS011;8401;52.528;13.340;2023-03-01T05:08:37;21.60;;;13.60;;
16577;SDS011;8401;52.528;13.340;2023-03-01T05:11:04;21.80;;;13.40;;
16577;SDS011;8401;52.528;13.340;2023-03-01T05:13:30;20.73;;;13.57;;
16577;SDS011;8401;52.528;13.340;2023-03-01T05:15:57;21.13;;;13.60;;
16577;SDS011;8401;52.528;13.340;2023-03-01T05:18:25;24.07;;;13.80;;
16577;SDS011;8401;52.528;13.340;2023-03-01T05:20:56;25.47;;;14.20;;
16577;SDS011;8401;52.528;13.340;2023-03-01T05:23:30;22.20;;;13.70;;
16577;SDS011;8401;52.528;13.340;2023-03-01T05:26:00;24.00;;;14.83;;
16577;SDS011;8401;52.528;13.340;2023-03-01T05:28:27;26.20;;;14.40;;
16577;SDS011;8401;52.528;13.340;2023-03-01T05:30:53;29.47;;;14.40;;
16577;SDS011;8401;52.528;13.340;2023-03-01T05:33:19;30.93;;;14.60;;
16577;SDS011;8401;52.528;13.340;2023-03-01T05:35:47;23.97;;;13.80;;
16577;SDS011;8401;52.528;13.340;2023-03-01T05:38:14;20.23;;;13.47;;
16577;SDS011;8401;52.528;13.340;2023-03-01T05:40:40;25.77;;;14.03;;
16577;SDS011;8401;52.528;13.340;2023-03-01T05:43:11;26.50;;;14.13;;
16577;SDS011;8401;52.528;13.340;2023-03-01T05:45:38;27.33;;;14.70;;
16577;SDS011;8401;52.528;13.340;2023-03-01T05:48:05;19.87;;;12.63;;
16577;SDS011;8401;52.528;13.340;2023-03-01T05:50:34;23.00;;;13.60;;
16577;SDS011;8401;52.528;13.340;2023-03-01T05:53:03;18.33;;;12.47;;
16577;SDS011;8401;52.528;13.340;2023-03-01T05:55:31;21.17;;;13.13;;
16577;SDS011;8401;52.528;13.340;2023-03-01T05:58:04;20.57;;;13.17;;
16577;SDS011;8401;52.528;13.340;2023-03-01T06:00:33;20.53;;;13.00;;
16577;SDS011;8401;52.528;13.340;2023-03-01T06:02:59;20.93;;;12.83;;
16577;SDS011;8401;52.528;13.340;2023-03-01T06:05:25;20.87;;;13.23;;
16577;SDS011;8401;52.528;13.340;2023-03-01T06:07:51;20.43;;;13.23;;
16577;SDS011;8401;52.528;13.340;2023-03-01T06:10:18;19.03;;;13.23;;
16577;SDS011;8401;52.528;13.340;2023-03-01T06:12:45;19.90;;;12.93;;
16577;SDS011;8401;52.528;13.340;2023-03-01T06:15:12;19.20;;;11.97;;
16577;SDS011;8401;52.528;13.340;2023-03-01T06:17:41;21.40;;;13.33;;
16577;SDS011;8401;52.528;13.340;2023-03-01T06:20:10;19.17;;;13.20;;
16577;SDS011;8401;52.528;13.340;2023-03-01T06:22:41;20.40;;;13.80;;
16577;SDS011;8401;52.528;13.340;2023-03-01T06:25:07;21.77;;;13.17;;
16577;SDS011;8401;52.528;13.340;2023-03-01T06:27:33;18.40;;;12.90;;
16577;SDS011;8401;52.528;13.340;2023-03-01T06:29:59;18.40;;;12.40;;
16577;SDS011;8401;52.528;13.340;2023-03-01T06:32:24;20.83;;;13.50;;
16577;SDS011;8401;52.528;13.340;2023-03-01T06:34:50;20.80;;;13.33;;
16577;SDS011;8401;52.528;13.340;2023-03-01T06:37:15;21.83;;;13.40;;
16577;SDS011;8401;52.528;13.340;2023-03-01T06:39:41;19.80;;;12.93;;
16577;SDS011;8401;52.528;13.340;2023-03-01T06:42:07;22.07;;;13.37;;
16577;SDS011;8401;52.528;13.340;2023-03-01T06:44:34;23.00;;;13.50;;
16577;SDS011;8401;52.528;13.340;2023-03-01T06:47:01;20.00;;;13.33;;
16577;SDS011;8401;52.528;13.340;2023-03-01T06:49:27;23.53;;;13.33;;
16577;SDS011;8401;52.528;13.340;2023-03-01T06:51:52;22.90;;;12.80;;
16577;SDS011;8401;52.528;13.340;2023-03-01T06:54:18;20.23;;;13.63;;
16577;SDS011;8401;52.528;13.340;2023-03-01T06:56:47;25.17;;;13.13;;
16577;SDS011;8401;52.528;13.340;2023-03-01T06:59:13;22.27;;;13.00;;
16577;SDS011;8401;52.528;13.340;2023-03-01T07:01:39;26.27;;;14.63;;
16577;SDS011;8401;52.528;13.340;2023-03-01T07:04:05;25.43;;;14.50;;
16577;SDS011;8401;52.528;13.340;2023-03-01T07:06:30;25.17;;;14.50;;
16577;SDS011;8401;52.528;13.340;2023-03-01T07:08:56;26.80;;;14.00;;
16577;SDS011;8401;52.528;13.340;2023-03-01T07:11:22;27.63;;;14.63;;
16577;SDS011;8401;52.528;13.340;2023-03-01T07:13:48;28.07;;;14.23;;
16577;SDS011;8401;52.528;13.340;2023-03-01T07:16:14;25.10;;;14.47;;
16577;SDS011;8401;52.528;13.340;2023-03-01T07:18:40;23.90;;;13.30;;
16577;SDS011;8401;52.528;13.340;2023-03-01T07:21:06;21.53;;;13.50;;
16577;SDS011;8401;52.528;13.340;2023-03-01T07:23:33;26.63;;;13.90;;
16577;SDS011;8401;52.528;13.340;2023-03-01T07:25:59;24.47;;;14.07;;
16577;SDS011;8401;52.528;13.340;2023-03-01T07:28:25;24.30;;;14.20;;
16577;SDS011;8401;52.528;13.340;2023-03-01T07:30:51;23.87;;;14.63;;
16577;SDS011;8401;52.528;13.340;2023-03-01T07:33:17;24.90;;;13.73;;
16577;SDS011;8401;52.528;13.340;2023-03-01T07:35:43;29.23;;;15.60;;
16577;SDS011;8401;52.528;13.340;2023-03-01T07:38:08;25.13;;;14.87;;
16577;SDS011;8401;52.528;13.340;2023-03-01T07:40:34;24.43;;;15.17;;
16577;SDS011;8401;52.528;13.340;2023-03-01T07:43:00;27.83;;;14.03;;
16577;SDS011;8401;52.528;13.340;2023-03-01T07:45:26;31.37;;;14.13;;
16577;SDS011;8401;52.528;13.340;2023-03-01T07:47:53;21.20;;;12.80;;
16577;SDS011;8401;52.528;13.340;2023-03-01T07:50:19;22.70;;;12.70;;
16577;SDS011;8401;52.528;13.340;2023-03-01T07:52:46;24.40;;;14.40;;
16577;SDS011;8401;52.528;13.340;2023-03-01T07:55:13;29.00;;;12.93;;
16577;SDS011;8401;52.528;13.340;2023-03-01T07:57:39;22.17;;;11.90;;
16577;SDS011;8401;52.528;13.340;2023-03-01T08:00:04;19.63;;;12.70;;
16577;SDS011;8401;52.528;13.340;2023-03-01T08:02:31;24.87;;;13.70;;
16577;SDS011;8401;52.528;13.340;2023-03-01T08:04:57;24.07;;;13.50;;
16577;SDS011;8401;52.528;13.340;2023-03-01T08:07:22;23.47;;;13.53;;
16577;SDS011;8401;52.528;13.340;2023-03-01T08:09:48;25.20;;;13.87;;
16577;SDS011;8401;52.528;13.340;2023-03-01T08:12:14;27.50;;;13.63;;
16577;SDS011;8401;52.528;13.340;2023-03-01T08:14:41;24.77;;;12.30;;
16577;SDS011;8401;52.528;13.340;2023-03-01T08:17:07;21.03;;;11.10;;
16577;SDS011;8401;52.528;13.340;2023-03-01T08:19:33;18.43;;;10.67;;
16577;SDS011;8401;52.528;13.340;2023-03-01T08:21:59;21.83;;;9.40;;
16577;SDS011;8401;52.528;13.340;2023-03-01T08:24:26;28.30;;;10.90;;
16577;SDS011;8401;52.528;13.340;2023-03-01T08:26:52;24.90;;;11.17;;
16577;SDS011;8401;52.528;13.340;2023-03-01T08:29:18;31.60;;;11.53;;
16577;SDS011;8401;52.528;13.340;2023-03-01T08:31:44;43.60;;;12.47;;
16577;SDS011;8401;52.528;13.340;2023-03-01T08:34:11;27.37;;;12.03;;
16577;SDS011;8401;52.528;13.340;2023-03-01T08:36:39;24.93;;;10.37;;
16577;SDS011;8401;52.528;13.340;2023-03-01T08:39:07;26.67;;;9.00;;
16577;SDS011;8401;52.528;13.340;2023-03-01T08:41:34;24.33;;;9.47;;
16577;SDS011;8401;52.528;13.340;2023-03-01T08:44:00;23.87;;;8.80;;
16577;SDS011;8401;52.528;13.340;2023-03-01T08:46:29;17.27;;;8.63;;
16577;SDS011;8401;52.528;13.340;2023-03-01T08:48:57;14.30;;;6.23;;
16577;SDS011;8401;52.528;13.340;2023-03-01T08:51:22;14.13;;;6.87;;
16577;SDS011;8401;52.528;13.340;2023-03-01T08:53:49;12.33;;;6.97;;
16577;SDS011;8401;52.528;13.340;2023-03-01T08:56:15;16.43;;;7.70;;
16577;SDS011;8401;52.528;13.340;2023-03-01T08:58:46;13.17;;;7.53;;
16577;SDS011;8401;52.528;13.340;2023-03-01T09:01:14;11.20;;;6.77;;
16577;SDS011;8401;52.528;13.340;2023-03-01T09:03:41;11.30;;;6.10;;
16577;SDS011;8401;52.528;13.340;2023-03-01T09:06:08;18.90;;;5.90;;
16577;SDS011;8401;52.528;13.340;2023-03-01T09:08:34;15.37;;;5.70;;
16577;SDS011;8401;52.528;13.340;2023-03-01T09:11:01;21.77;;;7.23;;
16577;SDS011;8401;52.528;13.340;2023-03-01T09:13:28;10.50;;;5.67;;
16577;SDS011;8401;52.528;13.340;2023-03-01T09:15:56;15.30;;;6.70;;
16577;SDS011;8401;52.528;13.340;2023-03-01T09:18:22;8.53;;;5.77;;
16577;SDS011;8401;52.528;13.340;2023-03-01T09:20:48;11.67;;;5.70;;
16577;SDS011;8401;52.528;13.340;2023-03-01T09:23:14;11.87;;;5.67;;
16577;SDS011;8401;52.528;13.340;2023-03-01T09:25:39;11.33;;;5.87;;
16577;SDS011;8401;52.528;13.340;2023-03-01T09:28:05;9.13;;;5.47;;
16577;SDS011;8401;52.528;13.340;2023-03-01T09:30:31;7.63;;;5.37;;
16577;SDS011;8401;52.528;13.340;2023-03-01T09:32:56;7.97;;;5.47;;
16577;SDS011;8401;52.528;13.340;2023-03-01T09:35:22;7.47;;;4.60;;
16577;SDS011;8401;52.528;13.340;2023-03-01T09:37:48;8.87;;;4.63;;
16577;SDS011;8401;52.528;13.340;2023-03-01T09:40:20;8.47;;;4.53;;
16577;SDS011;8401;52.528;13.340;2023-03-01T09:42:52;9.37;;;5.20;;
16577;SDS011;8401;52.528;13.340;2023-03-01T09:45:35;9.35;;;5.07;;
16577;SDS011;8401;52.528;13.340;2023-03-01T09:48:06;10.80;;;5.80;;
16577;SDS011;8401;52.528;13.340;2023-03-01T09:50:49;9.00;;;5.78;;
16577;SDS011;8401;52.528;13.340;2023-03-01T09:53:17;10.70;;;6.63;;
16577;SDS011;8401;52.528;13.340;2023-03-01T10:09:41;13.10;;;7.13;;
16577;SDS011;8401;52.528;13.340;2023-03-01T10:12:13;7.43;;;6.35;;
16577;SDS011;8401;52.528;13.340;2023-03-01T10:18:09;7.88;;;6.43;;
16577;SDS011;8401;52.528;13.340;2023-03-01T10:20:24;7.90;;;6.60;;
16577;SDS011;8401;52.528;13.340;2023-03-01T10:22:51;8.65;;;5.80;;
16577;SDS011;8401;52.528;13.340;2023-03-01T10:30:55;8.70;;;5.90;;
16577;SDS011;8401;52.528;13.340;2023-03-01T10:33:24;8.65;;;5.70;;
16577;SDS011;8401;52.528;13.340;2023-03-01T10:35:56;8.90;;;5.80;;
16577;SDS011;8401;52.528;13.340;2023-03-01T10:38:21;8.02;;;4.63;;
16577;SDS011;8401;52.528;13.340;2023-03-01T10:40:54;8.27;;;4.75;;
16577;SDS011;8401;52.528;13.340;2023-03-01T10:43:21;8.02;;;4.95;;
16577;SDS011;8401;52.528;13.340;2023-03-01T10:45:48;7.75;;;4.68;;
16577;SDS011;8401;52.528;13.340;2023-03-01T10:48:15;7.05;;;4.47;;
16577;SDS011;8401;52.528;13.340;2023-03-01T10:50:51;5.40;;;4.38;;
16577;SDS011;8401;52.528;13.340;2023-03-01T10:56:01;6.78;;;4.78;;
16577;SDS011;8401;52.528;13.340;2023-03-01T10:58:35;6.63;;;4.40;;
16577;SDS011;8401;52.528;13.340;2023-03-01T11:01:24;4.95;;;4.18;;
16577;SDS011;8401;52.528;13.340;2023-03-01T11:04:09;6.50;;;3.72;;
16577;SDS011;8401;52.528;13.340;2023-03-01T11:06:43;7.15;;;4.03;;
16577;SDS011;8401;52.528;13.340;2023-03-01T11:09:22;6.50;;;3.88;;
16577;SDS011;8401;52.528;13.340;2023-03-01T11:11:53;5.75;;;4.28;;
16577;SDS011;8401;52.528;13.340;2023-03-01T11:14:23;6.43;;;4.38;;
16577;SDS011;8401;52.528;13.340;2023-03-01T11:17:02;6.03;;;4.03;;
16577;SDS011;8401;52.528;13.340;2023-03-01T11:20:34;7.53;;;4.82;;
16577;SDS011;8401;52.528;13.340;2023-03-01T11:22:43;6.63;;;3.97;;
16577;SDS011;8401;52.528;13.340;2023-03-01T11:25:24;5.03;;;4.03;;
16577;SDS011;8401;52.528;13.340;2023-03-01T11:27:59;7.93;;;5.35;;
16577;SDS011;8401;52.528;13.340;2023-03-01T11:33:56;6.93;;;4.30;;
16577;SDS011;8401;52.528;13.340;2023-03-01T11:36:23;6.43;;;3.88;;
16577;SDS011;8401;52.528;13.340;2023-03-01T11:39:03;5.88;;;3.70;;
16577;SDS011;8401;52.528;13.340;2023-03-01T11:41:52;4.68;;;3.28;;
16577;SDS011;8401;52.528;13.340;2023-03-01T11:44:39;7.30;;;3.70;;
16577;SDS011;8401;52.528;13.340;2023-03-01T11:52:48;3.40;;;3.10;;
16577;SDS011;8401;52.528;13.340;2023-03-01T12:00:47;3.67;;;2.58;;
16577;SDS011;8401;52.528;13.340;2023-03-01T12:09:09;3.78;;;3.10;;
16577;SDS011;8401;52.528;13.340;2023-03-01T12:14:30;4.40;;;3.17;;
16577;SDS011;8401;52.528;13.340;2023-03-01T12:22:35;6.30;;;2.93;;
16577;SDS011;8401;52.528;13.340;2023-03-01T12:28:04;6.23;;;3.17;;
16577;SDS011;8401;52.528;13.340;2023-03-01T12:36:33;4.53;;;2.97;;
16577;SDS011;8401;52.528;13.340;2023-03-01T12:41:50;7.53;;;3.40;;
16577;SDS011;8401;52.528;13.340;2023-03-01T12:47:05;5.63;;;3.17;;
16577;SDS011;8401;52.528;13.340;2023-03-01T12:49:37;3.53;;;2.60;;
16577;SDS011;8401;52.528;13.340;2023-03-01T12:52:10;5.43;;;2.80;;
16577;SDS011;8401;52.528;13.340;2023-03-01T12:55:00;4.03;;;3.00;;
16577;SDS011;8401;52.528;13.340;2023-03-01T12:57:33;3.93;;;2.70;;
16577;SDS011;8401;52.528;13.340;2023-03-01T13:02:58;3.63;;;2.30;;
16577;SDS011;8401;52.528;13.340;2023-03-01T13:08:20;4.13;;;2.77;;
16577;SDS011;8401;52.528;13.340;2023-03-01T13:11:11;2.83;;;2.23;;
16577;SDS011;8401;52.528;13.340;2023-03-01T13:13:45;3.20;;;2.40;;
16577;SDS011;8401;52.528;13.340;2023-03-01T13:19:12;2.80;;;2.17;;
16577;SDS011;8401;52.528;13.340;2023-03-01T13:21:40;4.23;;;2.20;;
16577;SDS011;8401;52.528;13.340;2023-03-01T13:32:25;3.30;;;2.03;;
16577;SDS011;8401;52.528;13.340;2023-03-01T13:35:03;2.73;;;2.33;;
16577;SDS011;8401;52.528;13.340;2023-03-01T13:37:44;3.87;;;2.70;;
16577;SDS011;8401;52.528;13.340;2023-03-01T13:42:46;4.60;;;2.27;;
16577;SDS011;8401;52.528;13.340;2023-03-01T13:45:17;3.13;;;2.40;;
16577;SDS011;8401;52.528;13.340;2023-03-01T13:47:59;3.63;;;2.53;;
16577;SDS011;8401;52.528;13.340;2023-03-01T13:50:35;3.93;;;2.13;;
16577;SDS011;8401;52.528;13.340;2023-03-01T13:53:09;4.23;;;2.33;;
16577;SDS011;8401;52.528;13.340;2023-03-01T13:55:45;3.97;;;2.60;;
16577;SDS011;8401;52.528;13.340;2023-03-01T13:58:27;3.23;;;2.20;;
16577;SDS011;8401;52.528;13.340;2023-03-01T14:00:56;4.00;;;2.70;;
16577;SDS011;8401;52.528;13.340;2023-03-01T14:03:23;3.87;;;2.40;;
16577;SDS011;8401;52.528;13.340;2023-03-01T14:08:25;2.40;;;1.80;;
16577;SDS011;8401;52.528;13.340;2023-03-01T14:10:54;3.93;;;2.10;;
16577;SDS011;8401;52.528;13.340;2023-03-01T14:16:44;6.20;;;2.60;;
16577;SDS011;8401;52.528;13.340;2023-03-01T14:19:24;3.27;;;2.10;;
16577;SDS011;8401;52.528;13.340;2023-03-01T14:22:03;2.50;;;1.93;;
16577;SDS011;8401;52.528;13.340;2023-03-01T14:24:48;2.63;;;1.90;;
16577;SDS011;8401;52.528;13.340;2023-03-01T14:27:19;3.67;;;2.23;;
16577;SDS011;8401;52.528;13.340;2023-03-01T14:29:59;3.27;;;2.07;;
16577;SDS011;8401;52.528;13.340;2023-03-01T14:32:27;2.57;;;2.07;;
16577;SDS011;8401;52.528;13.340;2023-03-01T14:34:55;4.23;;;2.40;;
16577;SDS011;8401;52.528;13.340;2023-03-01T14:37:24;5.53;;;2.30;;
16577;SDS011;8401;52.528;13.340;2023-03-01T14:39:55;2.13;;;1.53;;
16577;SDS011;8401;52.528;13.340;2023-03-01T14:42:22;3.03;;;1.87;;
16577;SDS011;8401;52.528;13.340;2023-03-01T14:44:51;2.00;;;1.53;;
16577;SDS011;8401;52.528;13.340;2023-03-01T14:52:59;4.30;;;2.20;;
16577;SDS011;8401;52.528;13.340;2023-03-01T14:55:46;4.23;;;2.80;;
16577;SDS011;8401;52.528;13.340;2023-03-01T14:58:18;3.97;;;2.00;;
16577;SDS011;8401;52.528;13.340;2023-03-01T15:00:48;3.53;;;2.60;;
16577;SDS011;8401;52.528;13.340;2023-03-01T15:03:39;3.73;;;2.23;;
16577;SDS011;8401;52.528;13.340;2023-03-01T15:06:06;3.13;;;1.60;;
16577;SDS011;8401;52.528;13.340;2023-03-01T15:08:33;4.20;;;1.80;;
16577;SDS011;8401;52.528;13.340;2023-03-01T15:13:48;3.43;;;1.93;;
16577;SDS011;8401;52.528;13.340;2023-03-01T15:16:15;2.37;;;1.70;;
16577;SDS011;8401;52.528;13.340;2023-03-01T15:18:46;4.47;;;1.77;;
16577;SDS011;8401;52.528;13.340;2023-03-01T15:21:17;4.20;;;1.93;;
16577;SDS011;8401;52.528;13.340;2023-03-01T15:23:49;3.40;;;2.00;;
16577;SDS011;8401;52.528;13.340;2023-03-01T15:26:21;2.03;;;1.80;;
16577;SDS011;8401;52.528;13.340;2023-03-01T15:29:02;3.53;;;1.80;;
16577;SDS011;8401;52.528;13.340;2023-03-01T15:31:29;4.70;;;1.63;;
16577;SDS011;8401;52.528;13.340;2023-03-01T15:36:56;3.13;;;1.60;;
16577;SDS011;8401;52.528;13.340;2023-03-01T15:39:37;3.33;;;1.77;;
16577;SDS011;8401;52.528;13.340;2023-03-01T15:42:17;2.23;;;1.57;;
16577;SDS011;8401;52.528;13.340;2023-03-01T15:45:19;3.43;;;2.00;;
16577;SDS011;8401;52.528;13.340;2023-03-01T15:47:47;2.83;;;1.30;;
16577;SDS011;8401;52.528;13.340;2023-03-01T15:50:22;3.17;;;2.30;;
16577;SDS011;8401;52.528;13.340;2023-03-01T15:52:48;3.07;;;2.07;;
16577;SDS011;8401;52.528;13.340;2023-03-01T15:55:19;4.13;;;2.30;;
16577;SDS011;8401;52.528;13.340;2023-03-01T15:57:47;3.30;;;2.57;;
16577;SDS011;8401;52.528;13.340;2023-03-01T16:00:14;3.83;;;2.10;;
16577;SDS011;8401;52.528;13.340;2023-03-01T16:02:40;4.10;;;2.60;;
16577;SDS011;8401;52.528;13.340;2023-03-01T16:05:18;7.73;;;3.47;;
16577;SDS011;8401;52.528;13.340;2023-03-01T16:07:49;11.33;;;2.50;;
16577;SDS011;8401;52.528;13.340;2023-03-01T16:10:16;3.37;;;2.30;;
16577;SDS011;8401;52.528;13.340;2023-03-01T16:12:42;4.47;;;2.23;;
16577;SDS011;8401;52.528;13.340;2023-03-01T16:15:12;3.07;;;2.00;;
16577;SDS011;8401;52.528;13.340;2023-03-01T16:17:41;3.67;;;2.43;;
16577;SDS011;8401;52.528;13.340;2023-03-01T16:20:07;3.73;;;1.90;;
16577;SDS011;8401;52.528;13.340;2023-03-01T16:22:33;3.50;;;2.10;;
16577;SDS011;8401;52.528;13.340;2023-03-01T16:24:59;3.73;;;2.60;;
16577;SDS011;8401;52.528;13.340;2023-03-01T16:27:25;4.10;;;2.50;;
16577;SDS011;8401;52.528;13.340;2023-03-01T16:29:50;5.53;;;2.33;;
16577;SDS011;8401;52.528;13.340;2023-03-01T16:32:16;3.77;;;2.13;;
16577;SDS011;8401;52.528;13.340;2023-03-01T16:34:42;6.57;;;2.70;;
16577;SDS011;8401;52.528;13.340;2023-03-01T16:37:07;5.17;;;2.57;;
16577;SDS011;8401;52.528;13.340;2023-03-01T16:39:33;6.00;;;3.30;;
16577;SDS011;8401;52.528;13.340;2023-03-01T16:42:00;4.07;;;2.60;;
16577;SDS011;8401;52.528;13.340;2023-03-01T16:44:26;4.23;;;2.73;;